Time;durP1;ratioP1;P1;durP2;ratioP2;P2;SDS_P1;SDS_P2;PMS_P1;PMS_P2;Temp;Humidity;BMP_temperature;BMP_pressure;BME280_temperature;BME280_humidity;BME280_pressure;Samples;Min_cycle;Max_cycle;Signal;HPM_P1;HPM_P2
2022/01/31 00:00:14;;;;;;;18.63;3.00;;;;;;;;;;4956438;28;20066;-94
2022/01/31 00:02:45;;;;;;;24.10;3.83;;;;;;;;;;4992876;28;20057;-92
2022/01/31 00:05:13;;;;;;;16.77;3.40;;;;;;;;;;4982538;28;20058;-92
2022/01/31 00:07:40;;;;;;;23.60;3.10;;;;;;;;;;4972511;28;20481;-94
2022/01/31 00:10:12;;;;;;;24.33;3.40;;;;;;;;;;4969882;28;20102;-94
2022/01/31 00:12:54;;;;;;;36.67;3.97;;;;;;;;;;4967546;28;20086;-94
2022/01/31 00:15:22;;;;;;;28.42;3.35;;;;;;;;;;4974252;28;20042;-94
2022/01/31 00:17:51;;;;;;;23.13;3.08;;;;;;;;;;4975126;28;20056;-94
2022/01/31 00:20:19;;;;;;;26.25;4.25;;;;;;;;;;4996609;28;20077;-95
2022/01/31 00:22:47;;;;;;;29.85;3.33;;;;;;;;;;4941242;28;20945;-94
2022/01/31 00:25:14;;;;;;;18.00;3.28;;;;;;;;;;4995356;28;20046;-94
2022/01/31 00:27:42;;;;;;;34.38;3.95;;;;;;;;;;4989716;28;20052;-94
2022/01/31 00:30:11;;;;;;;20.98;3.15;;;;;;;;;;4955335;28;20496;-95
2022/01/31 00:32:38;;;;;;;22.80;2.85;;;;;;;;;;4979349;28;20054;-94
2022/01/31 00:35:10;;;;;;;21.83;3.00;;;;;;;;;;4967110;28;20042;-94
2022/01/31 00:37:38;;;;;;;30.25;3.45;;;;;;;;;;4977360;28;20061;-94
2022/01/31 00:40:09;;;;;;;14.38;3.60;;;;;;;;;;4976286;28;20110;-95
2022/01/31 00:42:37;;;;;;;30.73;3.67;;;;;;;;;;4965311;28;20046;-95
2022/01/31 00:47:39;;;;;;;19.30;3.10;;;;;;;;;;4991685;28;20046;-94
2022/01/31 00:50:11;;;;;;;26.58;3.13;;;;;;;;;;4973207;28;20141;-94
2022/01/31 00:52:42;;;;;;;25.60;3.45;;;;;;;;;;4958341;28;20065;-93
2022/01/31 00:55:13;;;;;;;18.55;2.55;;;;;;;;;;4988672;28;20095;-93
2022/01/31 00:57:41;;;;;;;16.23;2.60;;;;;;;;;;4981153;28;20054;-93
2022/01/31 01:00:10;;;;;;;20.55;2.80;;;;;;;;;;4953736;28;20066;-93
2022/01/31 01:02:39;;;;;;;19.52;3.45;;;;;;;;;;4968895;28;20158;-93
2022/01/31 01:05:07;;;;;;;26.02;3.50;;;;;;;;;;4972967;28;20159;-95
2022/01/31 01:07:34;;;;;;;31.38;4.80;;;;;;;;;;4967666;28;20118;-94
2022/01/31 01:10:04;;;;;;;17.88;2.75;;;;;;;;;;4979078;28;20065;-94
2022/01/31 01:55:09;;;;;;;14.60;2.63;;;;;;;;;;4980518;28;20050;-88
2022/01/31 01:57:39;;;;;;;22.85;2.80;;;;;;;;;;4956212;28;20502;-88
2022/01/31 02:00:08;;;;;;;16.73;2.83;;;;;;;;;;4943804;28;20046;-88
2022/01/31 02:02:36;;;;;;;23.08;3.35;;;;;;;;;;4969944;28;20054;-88
2022/01/31 02:05:11;;;;;;;21.10;2.88;;;;;;;;;;4960920;28;20051;-88
2022/01/31 02:07:40;;;;;;;17.70;3.42;;;;;;;;;;4955913;28;20506;-88
2022/01/31 02:10:12;;;;;;;20.88;2.92;;;;;;;;;;4953745;28;20065;-88
2022/01/31 02:12:50;;;;;;;24.17;3.33;;;;;;;;;;4973691;28;20458;-88
2022/01/31 02:15:35;;;;;;;23.02;2.88;;;;;;;;;;4959330;28;20054;-88
2022/01/31 02:18:26;;;;;;;17.10;3.38;;;;;;;;;;4976794;28;20420;-89
2022/01/31 02:20:54;;;;;;;21.40;3.28;;;;;;;;;;4952333;28;20058;-89
2022/01/31 02:23:23;;;;;;;24.70;5.18;;;;;;;;;;4957176;28;20058;-89
2022/01/31 02:26:01;;;;;;;15.82;3.35;;;;;;;;;;4956318;28;20429;-89
2022/01/31 02:28:46;;;;;;;19.80;3.03;;;;;;;;;;4958327;28;20057;-88
2022/01/31 02:31:14;;;;;;;21.17;2.78;;;;;;;;;;4943902;28;20062;-89
2022/01/31 02:33:42;;;;;;;24.58;2.63;;;;;;;;;;4957606;28;20054;-88
2022/01/31 02:36:11;;;;;;;24.38;3.33;;;;;;;;;;4947634;28;20055;-89
2022/01/31 02:38:38;;;;;;;17.02;2.80;;;;;;;;;;4960250;28;20046;-89
2022/01/31 02:41:06;;;;;;;28.85;3.13;;;;;;;;;;4976941;28;20054;-88
2022/01/31 02:43:35;;;;;;;18.73;2.92;;;;;;;;;;4969870;28;20061;-88
2022/01/31 03:10:33;;;;;;;30.77;3.65;;;;;;;;;;5003957;28;20038;-88
2022/01/31 03:13:01;;;;;;;21.35;3.00;;;;;;;;;;5005108;28;20057;-90
2022/01/31 03:15:33;;;;;;;23.13;2.70;;;;;;;;;;5003892;28;20425;-90
2022/01/31 03:18:20;;;;;;;21.35;2.72;;;;;;;;;;5002399;28;20057;-90
2022/01/31 03:20:48;;;;;;;15.00;3.17;;;;;;;;;;4974233;28;20049;-89
2022/01/31 03:23:16;;;;;;;17.33;2.70;;;;;;;;;;4976204;28;20050;-89
2022/01/31 04:05:16;;;;;;;15.93;2.42;;;;;;;;;;4986792;28;20074;-90
2022/01/31 04:07:44;;;;;;;17.70;3.03;;;;;;;;;;4975712;28;20047;-91
2022/01/31 04:10:12;;;;;;;18.15;2.38;;;;;;;;;;4967292;28;20577;-91
2022/01/31 04:12:40;;;;;;;11.73;2.90;;;;;;;;;;4987312;28;20050;-89
2022/01/31 04:33:46;;;;;;;18.52;2.60;;;;;;;;;;4983090;28;20046;-88
2022/01/31 04:36:15;;;;;;;17.75;2.80;;;;;;;;;;4985460;28;20088;-89
2022/01/31 04:38:44;;;;;;;21.58;3.17;;;;;;;;;;4983066;28;20054;-89
2022/01/31 04:41:13;;;;;;;16.10;2.65;;;;;;;;;;4979938;28;20528;-89
2022/01/31 04:43:40;;;;;;;18.35;3.50;;;;;;;;;;4968177;28;20050;-88
2022/01/31 04:46:10;;;;;;;18.23;3.10;;;;;;;;;;4967564;28;20051;-89
2022/01/31 04:48:37;;;;;;;14.77;2.90;;;;;;;;;;4965760;28;20141;-88
2022/01/31 04:51:04;;;;;;;20.40;2.78;;;;;;;;;;4982752;28;20101;-90
2022/01/31 04:53:32;;;;;;;18.67;2.50;;;;;;;;;;4982669;28;20101;-90
2022/01/31 04:56:00;;;;;;;13.63;2.35;;;;;;;;;;4971174;28;21100;-90
2022/01/31 05:18:58;;;;;;;24.65;3.17;;;;;;;;;;5022056;28;20045;-90
2022/01/31 05:21:27;;;;;;;14.20;2.70;;;;;;;;;;5025728;28;20045;-89
2022/01/31 05:23:55;;;;;;;15.40;2.40;;;;;;;;;;5007206;28;20064;-89
2022/01/31 05:26:23;;;;;;;13.13;2.42;;;;;;;;;;4991934;28;20056;-88
2022/01/31 05:28:51;;;;;;;19.77;2.15;;;;;;;;;;5009409;28;20057;-89
2022/01/31 05:31:19;;;;;;;15.02;2.88;;;;;;;;;;5008568;28;20100;-89
2022/01/31 05:33:47;;;;;;;23.42;3.58;;;;;;;;;;5021541;28;20072;-89
2022/01/31 05:36:15;;;;;;;23.25;3.50;;;;;;;;;;4992338;28;20096;-89
2022/01/31 05:38:44;;;;;;;16.33;2.53;;;;;;;;;;4993284;28;20073;-89
2022/01/31 05:41:17;;;;;;;16.15;3.08;;;;;;;;;;4990697;28;20057;-89
2022/01/31 05:43:48;;;;;;;21.48;3.20;;;;;;;;;;5021830;28;20061;-89
2022/01/31 05:46:17;;;;;;;18.83;2.85;;;;;;;;;;5005917;28;21098;-90
2022/01/31 06:09:16;;;;;;;18.90;3.10;;;;;;;;;;1400450;26;20057;-86
2022/01/31 06:33:57;;;;;;;15.32;2.67;;;;;;;;;;5021121;28;20049;-89
2022/01/31 06:36:25;;;;;;;27.67;4.20;;;;;;;;;;4996226;28;20045;-89
2022/01/31 06:38:53;;;;;;;18.10;2.70;;;;;;;;;;5010309;28;20061;-89
2022/01/31 06:41:24;;;;;;;20.55;3.63;;;;;;;;;;4989955;28;20052;-89
2022/01/31 06:43:51;;;;;;;17.13;2.85;;;;;;;;;;5007938;28;20046;-89
2022/01/31 06:46:31;;;;;;;21.15;3.33;;;;;;;;;;4978827;28;20050;-89
2022/01/31 06:48:59;;;;;;;17.73;3.25;;;;;;;;;;5005649;28;20115;-89
2022/01/31 06:51:28;;;;;;;10.77;2.60;;;;;;;;;;4992772;28;20894;-88
2022/01/31 06:53:57;;;;;;;16.80;3.25;;;;;;;;;;4995091;28;20057;-89
2022/01/31 06:56:29;;;;;;;21.58;3.28;;;;;;;;;;5005950;28;20404;-89
2022/01/31 06:58:58;;;;;;;14.50;2.53;;;;;;;;;;5004696;28;20049;-89
2022/01/31 07:01:25;;;;;;;15.05;3.05;;;;;;;;;;4987743;28;20052;-90
2022/01/31 07:03:55;;;;;;;14.23;2.70;;;;;;;;;;5023155;28;20143;-89
2022/01/31 07:06:26;;;;;;;16.13;3.53;;;;;;;;;;5001702;28;20108;-89
2022/01/31 07:08:55;;;;;;;21.83;3.05;;;;;;;;;;5009365;28;20135;-89
2022/01/31 07:11:26;;;;;;;16.60;3.60;;;;;;;;;;4995787;28;20049;-89
2022/01/31 07:14:04;;;;;;;20.48;3.00;;;;;;;;;;4994947;28;20061;-89
2022/01/31 07:16:34;;;;;;;20.00;3.33;;;;;;;;;;5008391;28;20042;-90
2022/01/31 07:19:07;;;;;;;26.27;3.20;;;;;;;;;;4992776;28;20137;-89
2022/01/31 07:21:48;;;;;;;21.80;2.92;;;;;;;;;;4989263;28;20556;-90
2022/01/31 07:24:45;;;;;;;21.45;2.70;;;;;;;;;;4986023;28;21439;-89
2022/01/31 07:27:13;;;;;;;20.27;3.35;;;;;;;;;;4992107;28;20061;-90
2022/01/31 07:29:41;;;;;;;16.10;3.00;;;;;;;;;;4998889;28;20861;-90
2022/01/31 07:32:11;;;;;;;19.38;3.60;;;;;;;;;;4969475;28;20130;-90
2022/01/31 07:34:40;;;;;;;24.13;3.22;;;;;;;;;;5008288;28;20083;-90
2022/01/31 07:37:09;;;;;;;26.83;4.22;;;;;;;;;;4994723;28;20046;-91
2022/01/31 07:39:39;;;;;;;17.60;3.15;;;;;;;;;;5007683;28;20052;-90
2022/01/31 07:42:07;;;;;;;20.10;3.08;;;;;;;;;;4990638;28;20085;-90
2022/01/31 07:44:45;;;;;;;15.15;3.40;;;;;;;;;;4999295;28;21397;-90
2022/01/31 07:47:13;;;;;;;23.35;3.38;;;;;;;;;;4987384;28;20059;-90
2022/01/31 07:49:41;;;;;;;13.48;2.65;;;;;;;;;;5002582;28;20139;-90
2022/01/31 07:52:09;;;;;;;21.00;3.55;;;;;;;;;;4979797;28;20056;-90
2022/01/31 07:54:44;;;;;;;12.30;2.53;;;;;;;;;;4997244;28;20080;-91
2022/01/31 07:57:14;;;;;;;23.92;3.38;;;;;;;;;;4974884;28;20065;-91
2022/01/31 08:00:03;;;;;;;19.50;3.25;;;;;;;;;;4974342;28;20062;-91
2022/01/31 08:02:53;;;;;;;16.30;3.03;;;;;;;;;;4970421;28;20613;-91
2022/01/31 08:05:25;;;;;;;18.75;2.97;;;;;;;;;;4979586;28;20056;-91
2022/01/31 08:08:07;;;;;;;20.00;3.40;;;;;;;;;;4974761;28;20050;-91
2022/01/31 08:10:39;;;;;;;20.38;3.45;;;;;;;;;;4975218;28;20391;-91
2022/01/31 08:13:08;;;;;;;15.43;2.67;;;;;;;;;;4932834;28;20912;-91
2022/01/31 08:15:59;;;;;;;28.20;3.22;;;;;;;;;;4966032;28;20061;-90
2022/01/31 08:18:31;;;;;;;17.40;2.92;;;;;;;;;;4969186;28;20123;-91
2022/01/31 08:21:00;;;;;;;16.50;2.95;;;;;;;;;;4979314;28;20116;-90
2022/01/31 08:23:30;;;;;;;18.65;3.45;;;;;;;;;;4963978;28;20050;-91
2022/01/31 08:26:01;;;;;;;22.42;2.88;;;;;;;;;;4953921;28;20125;-91
2022/01/31 08:36:34;;;;;;;15.15;3.20;;;;;;;;;;5000682;28;20711;-91
2022/01/31 08:39:08;;;;;;;16.33;2.80;;;;;;;;;;4980685;28;20061;-91
2022/01/31 08:41:41;;;;;;;8.32;2.13;;;;;;;;;;4996112;28;20775;-91
2022/01/31 08:44:11;;;;;;;16.58;3.45;;;;;;;;;;5003711;28;20339;-91
2022/01/31 08:46:40;;;;;;;23.27;4.07;;;;;;;;;;4954761;28;20379;-91
2022/01/31 08:49:08;;;;;;;22.23;4.05;;;;;;;;;;4986620;28;20046;-91
2022/01/31 08:51:36;;;;;;;15.55;2.88;;;;;;;;;;4991145;28;20103;-91
2022/01/31 08:54:06;;;;;;;22.63;3.03;;;;;;;;;;4977231;28;20141;-91
2022/01/31 08:56:40;;;;;;;20.10;3.67;;;;;;;;;;4987556;28;20057;-91
2022/01/31 08:59:08;;;;;;;14.18;2.75;;;;;;;;;;5004102;28;20103;-91
2022/01/31 09:01:35;;;;;;;16.23;3.90;;;;;;;;;;5019275;28;20059;-91
2022/01/31 09:04:05;;;;;;;14.15;3.17;;;;;;;;;;5021175;28;20071;-91
2022/01/31 09:06:34;;;;;;;17.20;3.25;;;;;;;;;;4989133;28;20132;-91
2022/01/31 09:09:08;;;;;;;23.08;3.72;;;;;;;;;;5005265;28;20464;-91
2022/01/31 09:11:36;;;;;;;21.08;3.53;;;;;;;;;;4970296;28;20180;-91
2022/01/31 09:14:05;;;;;;;21.08;3.85;;;;;;;;;;4982802;28;20050;-91
2022/01/31 09:16:33;;;;;;;13.60;2.70;;;;;;;;;;5004265;28;20481;-91
2022/01/31 09:19:02;;;;;;;25.08;3.28;;;;;;;;;;4989527;28;20088;-91
2022/01/31 09:21:29;;;;;;;21.00;3.72;;;;;;;;;;4972739;28;20057;-91
2022/01/31 09:23:57;;;;;;;18.75;3.70;;;;;;;;;;5003829;28;20053;-91
2022/01/31 09:26:26;;;;;;;15.90;3.78;;;;;;;;;;4991406;28;20076;-91
2022/01/31 09:28:54;;;;;;;19.05;3.85;;;;;;;;;;4987802;28;20104;-91
2022/01/31 09:31:23;;;;;;;12.02;2.80;;;;;;;;;;4968596;28;20050;-91
2022/01/31 09:33:51;;;;;;;19.45;3.70;;;;;;;;;;5009252;28;20152;-91
2022/01/31 09:36:19;;;;;;;14.15;2.80;;;;;;;;;;5018742;28;20531;-91
2022/01/31 09:38:47;;;;;;;8.23;3.47;;;;;;;;;;4985001;28;20041;-91
2022/01/31 09:41:20;;;;;;;16.85;3.78;;;;;;;;;;4988878;28;20461;-91
2022/01/31 09:49:07;;;;;;;13.45;2.72;;;;;;;;;;4926097;28;20056;-91
2022/01/31 09:51:35;;;;;;;17.30;3.70;;;;;;;;;;4898606;28;20047;-91
2022/01/31 09:54:04;;;;;;;13.75;3.53;;;;;;;;;;4934414;28;20110;-91
2022/01/31 09:56:41;;;;;;;22.67;4.03;;;;;;;;;;4916684;28;20101;-91
2022/01/31 09:59:11;;;;;;;17.10;4.10;;;;;;;;;;4908661;29;20055;-91
2022/01/31 10:01:49;;;;;;;17.15;3.67;;;;;;;;;;4916891;28;20419;-91
2022/01/31 10:04:19;;;;;;;17.98;3.67;;;;;;;;;;4928314;28;20147;-91
2022/01/31 10:06:53;;;;;;;13.25;3.13;;;;;;;;;;4929195;28;20051;-91
2022/01/31 10:09:28;;;;;;;13.73;3.70;;;;;;;;;;4949174;28;20446;-91
2022/01/31 10:12:09;;;;;;;16.75;4.03;;;;;;;;;;4917134;28;20437;-91
2022/01/31 10:17:37;;;;;;;15.85;4.00;;;;;;;;;;4940862;28;20075;-91
2022/01/31 10:20:17;;;;;;;16.10;4.10;;;;;;;;;;4913579;28;20109;-91
2022/01/31 10:22:46;;;;;;;9.30;2.78;;;;;;;;;;4934289;29;20079;-91
2022/01/31 10:25:21;;;;;;;26.25;3.80;;;;;;;;;;4941746;28;21081;-91
2022/01/31 10:28:18;;;;;;;20.90;5.07;;;;;;;;;;4976136;28;20092;-91
2022/01/31 10:30:51;;;;;;;20.55;3.78;;;;;;;;;;5008213;28;20057;-91
2022/01/31 10:33:21;;;;;;;15.60;4.53;;;;;;;;;;4992776;28;20446;-91
2022/01/31 10:35:49;;;;;;;10.30;3.25;;;;;;;;;;5007608;28;20053;-91
2022/01/31 10:38:30;;;;;;;12.68;4.03;;;;;;;;;;5007573;28;20045;-91
2022/01/31 10:44:46;;;;;;;18.98;4.90;;;;;;;;;;5010129;28;20064;-91
2022/01/31 10:52:27;;;;;;;16.58;4.53;;;;;;;;;;4991202;28;20065;-91
2022/01/31 10:55:12;;;;;;;5.82;2.75;;;;;;;;;;4959133;28;20102;-90
2022/01/31 10:57:41;;;;;;;13.43;3.33;;;;;;;;;;4954442;28;20073;-91
2022/01/31 11:00:09;;;;;;;11.15;3.17;;;;;;;;;;4989328;28;21083;-91
2022/01/31 11:02:37;;;;;;;13.60;3.75;;;;;;;;;;4946885;28;20050;-91
2022/01/31 11:05:22;;;;;;;7.57;2.90;;;;;;;;;;4964319;28;20109;-91
2022/01/31 11:07:49;;;;;;;8.32;3.38;;;;;;;;;;4971848;28;20046;-91
2022/01/31 11:10:27;;;;;;;9.75;3.40;;;;;;;;;;4957481;28;20209;-90
2022/01/31 11:12:55;;;;;;;11.60;3.03;;;;;;;;;;4965456;28;20054;-90
2022/01/31 11:15:23;;;;;;;8.52;3.22;;;;;;;;;;4973074;28;20050;-90
2022/01/31 11:17:56;;;;;;;4.70;2.55;;;;;;;;;;4954957;28;21189;-91
2022/01/31 11:20:23;;;;;;;10.93;3.35;;;;;;;;;;4969047;28;20054;-91
2022/01/31 11:22:57;;;;;;;9.05;3.05;;;;;;;;;;4969762;28;20050;-90
2022/01/31 11:25:29;;;;;;;8.90;3.63;;;;;;;;;;4975984;28;20061;-90
2022/01/31 11:27:59;;;;;;;10.70;3.33;;;;;;;;;;4989873;28;20773;-90
2022/01/31 11:30:27;;;;;;;6.38;2.85;;;;;;;;;;5019996;28;20057;-91
2022/01/31 11:32:55;;;;;;;7.15;2.95;;;;;;;;;;5006481;28;20382;-90
2022/01/31 11:35:24;;;;;;;10.68;3.70;;;;;;;;;;4987071;28;20057;-90
2022/01/31 11:37:51;;;;;;;8.25;3.20;;;;;;;;;;4973412;28;20045;-91
2022/01/31 11:40:21;;;;;;;9.10;3.30;;;;;;;;;;4991391;28;20640;-90
2022/01/31 11:42:50;;;;;;;10.15;3.28;;;;;;;;;;4994978;28;20052;-90
2022/01/31 11:45:30;;;;;;;8.05;3.03;;;;;;;;;;4990848;28;20112;-90
2022/01/31 11:48:05;;;;;;;7.93;3.10;;;;;;;;;;4973244;28;20046;-90
2022/01/31 11:50:43;;;;;;;8.15;3.53;;;;;;;;;;5021834;28;20397;-91
2022/01/31 11:53:11;;;;;;;7.38;3.15;;;;;;;;;;4972358;28;20986;-90
2022/01/31 11:55:39;;;;;;;6.95;3.08;;;;;;;;;;5018140;28;20054;-90
2022/01/31 11:58:09;;;;;;;7.03;2.90;;;;;;;;;;4995871;28;20049;-90
2022/01/31 12:00:40;;;;;;;6.10;3.05;;;;;;;;;;4976783;28;20096;-90
2022/01/31 12:03:14;;;;;;;7.32;2.80;;;;;;;;;;4989934;28;20076;-90
2022/01/31 12:05:44;;;;;;;7.57;3.15;;;;;;;;;;4988017;28;20567;-90
2022/01/31 12:08:19;;;;;;;11.50;3.53;;;;;;;;;;5007551;28;20513;-90
2022/01/31 12:11:25;;;;;;;6.85;3.13;;;;;;;;;;4988349;28;20097;-90
2022/01/31 12:13:59;;;;;;;6.07;3.38;;;;;;;;;;5005598;28;20057;-90
2022/01/31 12:16:40;;;;;;;11.00;3.80;;;;;;;;;;4987415;28;20058;-90
2022/01/31 12:19:45;;;;;;;11.93;3.88;;;;;;;;;;5005238;28;20141;-90
2022/01/31 12:22:41;;;;;;;8.35;3.38;;;;;;;;;;5007730;28;21513;-90
2022/01/31 12:25:24;;;;;;;9.93;3.92;;;;;;;;;;4998921;28;20698;-90
2022/01/31 12:27:54;;;;;;;10.65;4.13;;;;;;;;;;5014169;28;20041;-90
2022/01/31 12:30:31;;;;;;;14.93;4.28;;;;;;;;;;5021092;28;20041;-90
2022/01/31 12:32:59;;;;;;;11.02;4.28;;;;;;;;;;4987138;28;20080;-90
2022/01/31 12:35:36;;;;;;;9.15;3.70;;;;;;;;;;5004955;28;20111;-90
2022/01/31 12:38:06;;;;;;;14.38;4.32;;;;;;;;;;4993235;28;20045;-90
2022/01/31 12:40:45;;;;;;;15.10;4.05;;;;;;;;;;5023310;28;20053;-90
2022/01/31 12:43:51;;;;;;;11.60;4.22;;;;;;;;;;5006270;28;20096;-90
2022/01/31 12:46:16;;;;;;;10.73;3.75;;;;;;;;;;4998657;28;20061;-90
2022/01/31 12:49:05;;;;;;;10.27;3.65;;;;;;;;;;5005883;28;20065;-90
2022/01/31 12:52:00;;;;;;;8.18;3.80;;;;;;;;;;4972492;28;20072;-90
2022/01/31 12:54:29;;;;;;;14.50;4.22;;;;;;;;;;5002859;28;20077;-90
2022/01/31 12:57:06;;;;;;;16.77;4.20;;;;;;;;;;5006148;28;20053;-90
2022/01/31 12:59:34;;;;;;;15.52;4.68;;;;;;;;;;5007696;28;20072;-90
2022/01/31 13:02:06;;;;;;;15.48;4.43;;;;;;;;;;4987057;28;20050;-90
2022/01/31 13:04:36;;;;;;;19.40;5.25;;;;;;;;;;5008401;28;20436;-90
2022/01/31 13:07:05;;;;;;;17.75;5.60;;;;;;;;;;5005908;28;20076;-90
2022/01/31 13:09:53;;;;;;;11.35;4.18;;;;;;;;;;4986077;28;20506;-90
2022/01/31 13:12:23;;;;;;;12.88;4.07;;;;;;;;;;4985354;28;20041;-90
2022/01/31 13:14:52;;;;;;;16.08;4.78;;;;;;;;;;5022195;28;20399;-90
2022/01/31 13:17:25;;;;;;;12.98;5.35;;;;;;;;;;4982569;28;20129;-90
2022/01/31 13:19:55;;;;;;;14.23;4.10;;;;;;;;;;4971422;28;20057;-90
2022/01/31 13:22:42;;;;;;;16.48;5.13;;;;;;;;;;5003523;28;20053;-90
2022/01/31 13:25:15;;;;;;;12.82;4.72;;;;;;;;;;4999023;28;20152;-90
2022/01/31 13:28:07;;;;;;;10.68;4.25;;;;;;;;;;4976879;28;20046;-90
2022/01/31 13:30:35;;;;;;;15.13;5.03;;;;;;;;;;4985227;28;20501;-90
2022/01/31 13:33:13;;;;;;;13.45;4.40;;;;;;;;;;5019096;28;20398;-90
2022/01/31 13:36:35;;;;;;;8.85;4.20;;;;;;;;;;4971585;28;20203;-90
2022/01/31 13:39:25;;;;;;;11.25;4.53;;;;;;;;;;5003219;28;20140;-90
2022/01/31 13:41:53;;;;;;;14.05;4.88;;;;;;;;;;5001869;28;20077;-90
2022/01/31 13:44:22;;;;;;;15.80;4.55;;;;;;;;;;5004718;28;20096;-89
2022/01/31 13:46:55;;;;;;;22.33;5.07;;;;;;;;;;4992094;28;20073;-89
2022/01/31 13:49:29;;;;;;;11.68;5.03;;;;;;;;;;4988366;28;20141;-90
2022/01/31 13:51:57;;;;;;;12.52;5.07;;;;;;;;;;4972088;28;20488;-90
2022/01/31 13:54:25;;;;;;;12.32;4.68;;;;;;;;;;5012903;28;20061;-89
2022/01/31 13:56:56;;;;;;;19.98;5.68;;;;;;;;;;5006599;28;20049;-89
2022/01/31 13:59:45;;;;;;;12.10;5.22;;;;;;;;;;5011648;28;20135;-89
2022/01/31 14:02:13;;;;;;;13.52;4.80;;;;;;;;;;5007645;28;20053;-89
2022/01/31 14:04:47;;;;;;;17.38;5.22;;;;;;;;;;5019601;28;20132;-90
2022/01/31 14:07:27;;;;;;;13.25;5.22;;;;;;;;;;4971248;28;20110;-89
2022/01/31 14:09:55;;;;;;;14.23;5.47;;;;;;;;;;4988329;28;20124;-89
2022/01/31 14:12:27;;;;;;;15.73;5.72;;;;;;;;;;5004979;28;20054;-89
2022/01/31 14:14:55;;;;;;;17.40;5.10;;;;;;;;;;5007215;28;20485;-89
2022/01/31 14:17:24;;;;;;;14.90;5.20;;;;;;;;;;5004224;28;20052;-89
2022/01/31 14:19:53;;;;;;;15.20;5.05;;;;;;;;;;4992339;28;20049;-89
2022/01/31 14:22:28;;;;;;;13.80;5.22;;;;;;;;;;4974674;28;20061;-89
2022/01/31 14:24:55;;;;;;;17.45;5.47;;;;;;;;;;4966398;28;20104;-89
2022/01/31 14:27:24;;;;;;;17.77;5.35;;;;;;;;;;5005661;28;20053;-90
2022/01/31 14:29:57;;;;;;;13.77;4.88;;;;;;;;;;5013648;28;20037;-89
2022/01/31 14:32:30;;;;;;;17.38;5.50;;;;;;;;;;5007860;28;20063;-90
2022/01/31 14:35:01;;;;;;;17.23;5.78;;;;;;;;;;4988785;28;20068;-89
2022/01/31 14:37:33;;;;;;;17.50;5.82;;;;;;;;;;5005806;28;20050;-89
2022/01/31 14:40:21;;;;;;;12.55;5.63;;;;;;;;;;5000323;28;20050;-89
2022/01/31 14:43:13;;;;;;;19.38;5.60;;;;;;;;;;4986358;28;20148;-89
2022/01/31 14:48:35;;;;;;;18.92;6.10;;;;;;;;;;4964252;28;20054;-89
2022/01/31 14:51:03;;;;;;;13.35;6.47;;;;;;;;;;4967988;28;20090;-90
2022/01/31 14:53:31;;;;;;;12.57;5.75;;;;;;;;;;4946652;28;20072;-89
2022/01/31 14:55:59;;;;;;;13.70;6.03;;;;;;;;;;4945492;28;20055;-89
2022/01/31 14:58:27;;;;;;;15.40;6.00;;;;;;;;;;4951405;28;20050;-89
2022/01/31 15:00:57;;;;;;;15.95;6.60;;;;;;;;;;4949437;28;20059;-89
2022/01/31 15:03:26;;;;;;;20.27;6.50;;;;;;;;;;4945616;28;20067;-89
2022/01/31 15:05:55;;;;;;;21.10;6.88;;;;;;;;;;4949339;28;20531;-89
2022/01/31 15:08:23;;;;;;;25.38;6.28;;;;;;;;;;4948405;28;20176;-90
2022/01/31 15:10:53;;;;;;;20.45;6.72;;;;;;;;;;4952369;28;20050;-89
2022/01/31 15:13:21;;;;;;;20.50;7.20;;;;;;;;;;4950763;28;20058;-89
2022/01/31 15:15:53;;;;;;;18.10;6.60;;;;;;;;;;4964443;28;20104;-90
2022/01/31 15:18:22;;;;;;;19.92;7.03;;;;;;;;;;4931809;28;20066;-89
2022/01/31 15:20:49;;;;;;;17.27;6.72;;;;;;;;;;4947520;28;20145;-89
2022/01/31 15:23:20;;;;;;;22.17;6.97;;;;;;;;;;4946518;28;20058;-90
2022/01/31 15:25:47;;;;;;;27.38;7.60;;;;;;;;;;4982671;28;20111;-89
2022/01/31 15:28:15;;;;;;;26.80;6.55;;;;;;;;;;5002038;28;20053;-89
2022/01/31 15:30:44;;;;;;;18.33;7.15;;;;;;;;;;5004288;28;21508;-89
2022/01/31 15:33:15;;;;;;;19.15;7.35;;;;;;;;;;5016027;28;20140;-89
2022/01/31 15:35:58;;;;;;;20.45;7.22;;;;;;;;;;4975718;28;20052;-90
2022/01/31 15:38:26;;;;;;;25.10;6.68;;;;;;;;;;5018918;28;20081;-89
2022/01/31 15:40:55;;;;;;;22.85;6.68;;;;;;;;;;5005024;28;20417;-90
2022/01/31 15:43:25;;;;;;;22.08;7.47;;;;;;;;;;5004873;28;20044;-90
2022/01/31 15:46:14;;;;;;;14.57;6.47;;;;;;;;;;4973781;28;20053;-89
2022/01/31 15:48:41;;;;;;;18.10;6.43;;;;;;;;;;4986938;28;20046;-90
2022/01/31 15:51:09;;;;;;;22.05;6.97;;;;;;;;;;4988591;28;20075;-89
2022/01/31 15:53:37;;;;;;;24.50;6.63;;;;;;;;;;4991320;28;20049;-89
2022/01/31 15:56:05;;;;;;;22.08;7.15;;;;;;;;;;4988694;28;20061;-89
2022/01/31 15:58:33;;;;;;;20.05;7.13;;;;;;;;;;5003919;28;20406;-89
2022/01/31 16:01:08;;;;;;;25.58;6.55;;;;;;;;;;4987413;28;20059;-89
2022/01/31 16:03:35;;;;;;;16.17;6.85;;;;;;;;;;4993612;28;20409;-89
2022/01/31 16:06:03;;;;;;;19.15;6.80;;;;;;;;;;5017028;28;20069;-89
2022/01/31 16:08:31;;;;;;;24.30;6.90;;;;;;;;;;4986737;28;20041;-89
2022/01/31 16:10:59;;;;;;;24.20;7.32;;;;;;;;;;5001856;28;21305;-90
2022/01/31 16:13:47;;;;;;;17.13;5.93;;;;;;;;;;4973746;28;20454;-90
2022/01/31 16:16:15;;;;;;;14.50;5.82;;;;;;;;;;4986542;28;20049;-90
2022/01/31 16:18:43;;;;;;;18.70;5.97;;;;;;;;;;4973826;28;20133;-89
2022/01/31 16:21:11;;;;;;;19.83;5.95;;;;;;;;;;5005196;28;20058;-90
2022/01/31 16:23:39;;;;;;;19.40;5.80;;;;;;;;;;4990091;28;20041;-89
2022/01/31 16:26:07;;;;;;;14.00;5.65;;;;;;;;;;4989761;28;20060;-90
2022/01/31 16:28:36;;;;;;;18.30;5.95;;;;;;;;;;4991543;28;20480;-90
2022/01/31 16:31:16;;;;;;;19.80;5.50;;;;;;;;;;4993334;28;20053;-90
2022/01/31 16:33:43;;;;;;;20.50;6.32;;;;;;;;;;4999527;28;20091;-90
2022/01/31 16:36:12;;;;;;;20.35;6.10;;;;;;;;;;4984371;28;20045;-90
2022/01/31 16:38:40;;;;;;;19.33;5.85;;;;;;;;;;4969832;28;20049;-90
2022/01/31 16:41:07;;;;;;;18.10;5.82;;;;;;;;;;4985889;28;20129;-90
2022/01/31 16:43:35;;;;;;;20.65;5.97;;;;;;;;;;4986512;28;20502;-90
2022/01/31 16:46:03;;;;;;;18.33;6.05;;;;;;;;;;4971531;28;20042;-90
2022/01/31 16:48:31;;;;;;;20.35;6.07;;;;;;;;;;4967242;28;20479;-89
2022/01/31 16:50:59;;;;;;;16.70;6.03;;;;;;;;;;4971391;28;20140;-89
2022/01/31 16:53:31;;;;;;;25.30;6.40;;;;;;;;;;4986141;28;20158;-89
2022/01/31 16:55:59;;;;;;;15.30;5.63;;;;;;;;;;4988487;28;20144;-89
2022/01/31 16:58:47;;;;;;;20.55;6.95;;;;;;;;;;4972869;28;20150;-89
2022/01/31 17:01:15;;;;;;;15.98;6.13;;;;;;;;;;5003289;28;20343;-89
2022/01/31 17:03:43;;;;;;;19.83;6.18;;;;;;;;;;4982979;28;20049;-90
2022/01/31 17:06:11;;;;;;;22.88;6.03;;;;;;;;;;4998541;28;20111;-89
2022/01/31 17:08:40;;;;;;;18.52;5.63;;;;;;;;;;4984196;28;20045;-89
2022/01/31 17:11:07;;;;;;;15.60;5.13;;;;;;;;;;4982023;28;20172;-89
2022/01/31 17:13:36;;;;;;;20.27;6.57;;;;;;;;;;5002459;28;20538;-90
2022/01/31 17:16:03;;;;;;;14.77;5.57;;;;;;;;;;4973158;28;20056;-90
2022/01/31 17:18:31;;;;;;;14.98;5.25;;;;;;;;;;4990927;28;20050;-89
2022/01/31 17:21:00;;;;;;;15.65;5.35;;;;;;;;;;5006024;28;20049;-89
2022/01/31 17:23:27;;;;;;;18.40;5.70;;;;;;;;;;5002945;28;21126;-90
2022/01/31 17:25:55;;;;;;;13.57;5.30;;;;;;;;;;4999575;28;20049;-90
2022/01/31 17:28:24;;;;;;;14.52;4.80;;;;;;;;;;4989968;28;20050;-89
2022/01/31 17:30:53;;;;;;;22.70;5.70;;;;;;;;;;4992550;28;20052;-89
2022/01/31 17:33:21;;;;;;;19.40;5.32;;;;;;;;;;4989435;28;20157;-89
2022/01/31 17:35:49;;;;;;;20.05;5.57;;;;;;;;;;4989333;28;20053;-89
2022/01/31 17:38:17;;;;;;;15.13;5.82;;;;;;;;;;4990718;28;20054;-89
2022/01/31 17:40:46;;;;;;;17.67;6.60;;;;;;;;;;4991783;28;20127;-89
2022/01/31 17:43:13;;;;;;;14.20;5.47;;;;;;;;;;4975682;28;20066;-89
2022/01/31 17:45:41;;;;;;;21.02;6.07;;;;;;;;;;4973059;28;20077;-89
2022/01/31 17:48:13;;;;;;;16.92;5.30;;;;;;;;;;4969443;28;20135;-89
2022/01/31 17:50:41;;;;;;;17.55;5.60;;;;;;;;;;4989200;28;20667;-90
2022/01/31 17:53:10;;;;;;;20.75;5.97;;;;;;;;;;4990803;28;20045;-89
2022/01/31 17:55:37;;;;;;;22.67;6.40;;;;;;;;;;5003959;28;20128;-89
2022/01/31 17:58:06;;;;;;;23.25;7.28;;;;;;;;;;4991231;28;20429;-89
2022/01/31 18:00:34;;;;;;;20.10;6.20;;;;;;;;;;5005114;28;20074;-89
2022/01/31 18:03:01;;;;;;;25.30;6.68;;;;;;;;;;5003333;28;20046;-89
2022/01/31 18:05:31;;;;;;;21.08;7.05;;;;;;;;;;5007297;28;20073;-89
2022/01/31 18:07:59;;;;;;;18.55;7.03;;;;;;;;;;5006988;28;20049;-89
2022/01/31 18:10:27;;;;;;;18.25;6.45;;;;;;;;;;4995714;28;20050;-89
2022/01/31 18:12:55;;;;;;;20.13;7.28;;;;;;;;;;4999782;28;20045;-89
2022/01/31 18:15:23;;;;;;;21.30;6.97;;;;;;;;;;5001539;28;20060;-89
2022/01/31 18:17:51;;;;;;;16.85;6.75;;;;;;;;;;4988724;28;20050;-89
2022/01/31 18:20:19;;;;;;;17.77;7.10;;;;;;;;;;4991658;28;20050;-89
2022/01/31 18:22:47;;;;;;;19.52;6.88;;;;;;;;;;4989376;28;20139;-89
2022/01/31 18:25:18;;;;;;;19.08;7.07;;;;;;;;;;4991842;28;20084;-89
2022/01/31 18:27:46;;;;;;;24.45;6.88;;;;;;;;;;4990320;28;20160;-89
2022/01/31 18:30:15;;;;;;;23.40;7.65;;;;;;;;;;4987965;28;20128;-89
2022/01/31 18:32:48;;;;;;;21.98;6.68;;;;;;;;;;4991480;28;20103;-89
2022/01/31 18:35:21;;;;;;;20.25;7.03;;;;;;;;;;4995092;28;20061;-89